createdAt,value
2018-02-24T00:00:00.843Z,86.18
2018-02-24T00:01:10.953Z,85.99
2018-02-24T00:02:21.012Z,85.99
2018-02-24T00:03:31.065Z,85.99
2018-02-24T00:04:40.860Z,85.99
2018-02-24T00:05:50.660Z,86.18
2018-02-24T00:07:00.724Z,86.56
2018-02-24T00:08:10.775Z,86.18
2018-02-24T00:09:21.991Z,86.47
2018-02-24T00:10:31.512Z,86.09
2018-02-24T00:11:41.573Z,86.75
2018-02-24T00:12:51.625Z,85.9
2018-02-24T00:14:01.679Z,85.8
2018-02-24T00:15:11.715Z,86.09
2018-02-24T00:16:21.500Z,85.99
2018-02-24T00:17:31.564Z,86.37
2018-02-24T00:18:41.369Z,86.09
2018-02-24T00:19:51.162Z,86.18
2018-02-24T00:21:00.963Z,85.99
2018-02-24T00:22:11.012Z,86.47
2018-02-24T00:23:20.529Z,86.37
2018-02-24T00:24:30.329Z,86.09
2018-02-24T00:25:40.122Z,86.09
2018-02-24T00:26:50.174Z,86.18
2018-02-24T00:27:59.960Z,86.09
2018-02-24T00:29:09.738Z,86.18
2018-02-24T00:30:19.263Z,86.47
2018-02-24T00:31:29.061Z,86.37
2018-02-24T00:32:38.843Z,86.75
2018-02-24T00:33:48.909Z,86.75
2018-02-24T00:34:58.423Z,85.99
2018-02-24T00:36:08.215Z,86.28
2018-02-24T00:37:17.746Z,86.47
2018-02-24T00:38:27.531Z,86.47
2018-02-24T00:39:37.068Z,86.18
2018-02-24T00:40:47.152Z,86.37
2018-02-24T00:41:56.975Z,86.37
2018-02-24T00:43:07.028Z,86.28
2018-02-24T00:44:16.549Z,86.47
2018-02-24T00:45:26.345Z,86.37
2018-02-24T00:46:36.392Z,86.28
2018-02-24T00:47:45.669Z,85.9
2018-02-24T00:48:55.731Z,86.28
2018-02-24T00:50:05.536Z,86.37
2018-02-24T00:51:15.612Z,86.37
2018-02-24T00:52:25.662Z,86.56
2018-02-24T00:53:35.717Z,85.99
2018-02-24T00:54:45.565Z,86.04
2018-02-24T00:55:55.615Z,86.23
2018-02-24T00:57:05.146Z,85.95
2018-02-24T00:58:14.946Z,85.95
2018-02-24T00:59:24.736Z,86.52
2018-02-24T01:00:34.782Z,86.42
2018-02-24T01:01:44.844Z,86.14
2018-02-24T01:02:54.881Z,86.23
2018-02-24T01:04:04.925Z,86.14
2018-02-24T01:05:14.712Z,86.42
2018-02-24T01:06:24.765Z,86.14
2018-02-24T01:07:34.554Z,86.23
2018-02-24T01:08:44.602Z,86.52
2018-02-24T01:09:54.652Z,86.52
2018-02-24T01:11:04.486Z,86.14
2018-02-24T01:12:14.526Z,86.33
2018-02-24T01:13:24.597Z,86.04
2018-02-24T01:14:34.141Z,86.14
2018-02-24T01:15:44.161Z,86
2018-02-24T01:16:53.949Z,86
2018-02-24T01:18:03.746Z,86.29
2018-02-24T01:19:13.541Z,86.19
2018-02-24T01:20:23.574Z,86.29
2018-02-24T01:21:34.621Z,86.66
2018-02-24T01:22:44.138Z,85.81
2018-02-24T01:23:53.936Z,85.91
2018-02-24T01:25:03.721Z,86.38
2018-02-24T01:26:13.782Z,85.81
2018-02-24T01:27:23.815Z,86.19
2018-02-24T01:28:33.867Z,85.91
2018-02-24T01:29:43.666Z,86.1
2018-02-24T01:30:53.453Z,86.1
2018-02-24T01:32:03.491Z,86
2018-02-24T01:33:13.587Z,86.19
2018-02-24T01:34:23.682Z,86.1
2018-02-24T01:35:33.465Z,85.72
2018-02-24T01:36:43.252Z,86.19
2018-02-24T01:37:52.779Z,86
2018-02-24T01:39:02.042Z,85.91
2018-02-24T01:40:11.608Z,85.81
2018-02-24T01:41:21.125Z,86.29
2018-02-24T01:42:31.238Z,85.91
2018-02-24T01:43:41.279Z,85.72
2018-02-24T01:44:51.066Z,85.91
2018-02-24T01:46:01.103Z,86
2018-02-24T01:47:10.904Z,85.91
2018-02-24T01:48:20.970Z,86
2018-02-24T01:49:30.251Z,85.81
2018-02-24T01:50:40.854Z,86.19
2018-02-24T01:51:50.905Z,86
2018-02-24T01:53:00.693Z,86
2018-02-24T01:54:10.753Z,85.91
2018-02-24T01:55:20.810Z,85.81
2018-02-24T01:56:30.866Z,85.81
2018-02-24T01:57:40.919Z,85.72
2018-02-24T01:58:50.745Z,85.72
2018-02-24T02:00:00.527Z,86.1
2018-02-24T02:01:10.333Z,86
2018-02-24T02:02:20.110Z,86
2018-02-24T02:03:29.905Z,85.91
2018-02-24T02:04:39.966Z,86.1
2018-02-24T02:05:49.773Z,86
2018-02-24T02:06:59.292Z,86
2018-02-24T02:08:09.350Z,85.62
2018-02-24T02:09:19.152Z,85.81
2018-02-24T02:10:29.003Z,85.72
2018-02-24T02:11:38.803Z,86.19
2018-02-24T02:12:48.916Z,85.68
2018-02-24T02:13:58.958Z,86.15
2018-02-24T02:15:08.521Z,85.58
2018-02-24T02:16:18.298Z,85.96
2018-02-24T02:17:28.075Z,85.58
2018-02-24T02:18:37.853Z,85.96
2018-02-24T02:19:47.919Z,85.68
2018-02-24T02:20:57.719Z,85.77
2018-02-24T02:22:07.812Z,85.77
2018-02-24T02:23:17.855Z,85.68
2018-02-24T02:24:27.658Z,85.2
2018-02-24T02:25:37.198Z,85.3
2018-02-24T02:26:46.973Z,85.77
2018-02-24T02:27:56.506Z,85.77
2018-02-24T02:29:06.296Z,85.77
2018-02-24T02:30:16.349Z,85.77
2018-02-24T02:31:26.135Z,85.91
2018-02-24T02:32:36.248Z,86.15
2018-02-24T02:33:46.322Z,85.72
2018-02-24T02:34:56.372Z,85.96
2018-02-24T02:36:06.452Z,85.49
2018-02-24T02:37:16.001Z,85.39
2018-02-24T02:38:26.052Z,85.39
2018-02-24T02:39:36.124Z,85.39
2018-02-24T02:40:46.176Z,85.3
2018-02-24T02:41:56.248Z,85.39
2018-02-24T02:43:06.317Z,86.05
2018-02-24T02:44:16.365Z,85.49
2018-02-24T02:45:25.634Z,85.39
2018-02-24T02:46:35.712Z,85.49
2018-02-24T02:47:45.523Z,85.96
2018-02-24T02:48:55.586Z,85.96
2018-02-24T02:50:05.637Z,85.77
2018-02-24T02:51:15.150Z,85.2
2018-02-24T02:52:25.219Z,85.77
2018-02-24T02:53:35.274Z,85.49
2018-02-24T02:54:45.074Z,85.3
2018-02-24T02:55:54.865Z,85.96
2018-02-24T02:57:04.922Z,85.49
2018-02-24T02:58:14.709Z,85.39
2018-02-24T02:59:24.770Z,85.49
2018-02-24T03:00:34.582Z,86.15
2018-02-24T03:01:44.385Z,86.15
2018-02-24T03:02:54.177Z,85.96
2018-02-24T03:04:03.977Z,85.2
2018-02-24T03:05:14.040Z,85.58
2018-02-24T03:06:24.107Z,85.39
2018-02-24T03:37:30.595Z,82.43
2018-02-24T03:38:40.101Z,82.43
2018-02-24T03:39:49.903Z,82.9
2018-02-24T03:40:59.944Z,84.51
2018-02-24T03:42:09.725Z,85.11
2018-02-24T03:43:19.770Z,85.68
2018-02-24T03:44:29.278Z,86.06
2018-02-24T03:45:39.320Z,86.44
2018-02-24T03:46:49.345Z,86.53
2018-02-24T03:47:59.130Z,86.63
2018-02-24T03:49:08.908Z,86.82
2018-02-24T03:50:18.686Z,86.72
2018-02-24T03:51:28.482Z,86.53
2018-02-24T03:52:38.518Z,86.57
2018-02-24T03:53:48.566Z,86.67
2018-02-24T03:54:58.660Z,86.48
2018-02-24T03:56:08.179Z,86.38
2018-02-24T03:57:18.226Z,86.38
2018-02-24T03:58:27.762Z,86.01
2018-02-24T03:59:37.553Z,86.19
2018-02-24T04:00:47.385Z,86.01
2018-02-24T04:01:57.168Z,86.38
2018-02-24T04:03:07.214Z,85.82
2018-02-24T04:04:17.266Z,85.72
2018-02-24T04:05:27.371Z,85.82
2018-02-24T04:06:37.240Z,85.91
2018-02-24T04:07:47.046Z,86.01
2018-02-24T04:08:57.112Z,85.72
2018-02-24T04:10:07.134Z,85.44
2018-02-24T04:11:16.931Z,85.72
2018-02-24T04:12:27.049Z,85.3
2018-02-24T04:13:36.824Z,85.25
2018-02-24T04:14:46.886Z,85.25
2018-02-24T04:15:56.938Z,85.3
2018-02-24T04:17:06.730Z,85.44
2018-02-24T04:18:16.252Z,85.49
2018-02-24T04:19:26.065Z,85.96
2018-02-24T04:20:35.846Z,85.39
2018-02-24T04:21:45.881Z,85.49
2018-02-24T04:22:55.666Z,85.49
2018-02-24T04:24:05.700Z,85.3
2018-02-24T04:25:15.754Z,85.58
2018-02-24T04:26:25.545Z,85.58
2018-02-24T04:27:35.056Z,85.68
2018-02-24T04:28:45.118Z,85.68
2018-02-24T04:29:54.968Z,85.3
2018-02-24T04:31:05.007Z,85.39
2018-02-24T04:32:15.058Z,85.2
2018-02-24T04:33:25.145Z,85.39
2018-02-24T04:34:34.940Z,85.3
2018-02-24T04:35:44.986Z,85.58
2018-02-24T04:36:55.085Z,85.49
2018-02-24T04:38:05.120Z,85.49
2018-02-24T04:39:15.171Z,85.49
2018-02-24T04:40:24.957Z,85.58
2018-02-24T04:41:34.747Z,85.39
2018-02-24T04:42:44.837Z,85.35
2018-02-24T04:43:54.606Z,85.25
2018-02-24T04:45:04.405Z,85.49
2018-02-24T04:46:14.198Z,85.35
2018-02-24T04:47:24.260Z,85.44
2018-02-24T04:48:34.302Z,85.63
2018-02-24T04:49:44.091Z,85.68
2018-02-24T04:50:53.877Z,85.68
2018-02-24T04:52:03.664Z,85.68
2018-02-24T04:53:13.719Z,84.92
2018-02-24T04:54:23.766Z,85.44
2018-02-24T04:55:33.282Z,84.97
2018-02-24T04:56:43.070Z,84.88
2018-02-24T04:57:52.855Z,84.88
2018-02-24T04:59:02.966Z,84.97
2018-02-24T05:00:13.010Z,84.97
2018-02-24T05:01:22.548Z,85.44
2018-02-24T05:02:32.333Z,84.78
2018-02-24T05:03:42.396Z,85.53
2018-02-24T05:04:52.184Z,85.25
2018-02-24T05:06:02.220Z,84.97
2018-02-24T05:07:12.270Z,84.78
2018-02-24T05:08:22.319Z,84.97
2018-02-24T05:09:32.370Z,84.88
2018-02-24T05:10:42.426Z,84.78
2018-02-24T05:11:52.489Z,85.16
2018-02-24T05:13:02.288Z,85.06
2018-02-24T05:14:12.062Z,85.53
2018-02-24T05:15:21.856Z,85.06
2018-02-24T05:16:31.626Z,85.25
2018-02-24T05:17:41.713Z,85.25
2018-02-24T05:18:51.498Z,85.16
2018-02-24T05:20:01.279Z,85.16
2018-02-24T05:21:10.556Z,85.16
2018-02-24T05:22:20.345Z,85.16
2018-02-24T05:23:30.130Z,85.25
2018-02-24T05:24:40.194Z,85.25
2018-02-24T05:25:49.714Z,85.16
2018-02-24T05:26:59.491Z,85.44
2018-02-24T05:28:09.013Z,85.16
2018-02-24T05:29:18.808Z,85.16
2018-02-24T05:30:28.597Z,85.25
2018-02-24T05:31:38.645Z,85.35
2018-02-24T05:32:48.194Z,85.25
2018-02-24T05:33:57.760Z,85.16
2018-02-24T05:35:07.812Z,85.16
2018-02-24T05:36:17.609Z,85.16
2018-02-24T05:37:27.661Z,84.97
2018-02-24T05:38:37.444Z,85.44
2018-02-24T05:39:47.015Z,84.88
2018-02-24T05:40:57.051Z,85.44
2018-02-24T05:42:06.839Z,84.97
2018-02-24T05:43:16.880Z,84.88
2018-02-24T05:44:26.661Z,85.35
2018-02-24T05:45:36.189Z,84.97
2018-02-24T05:46:45.975Z,85.44
2018-02-24T05:47:56.023Z,84.78
2018-02-24T05:49:05.822Z,85.35
2018-02-24T05:50:15.599Z,84.78
2018-02-24T05:51:25.648Z,84.97
2018-02-24T05:52:35.161Z,84.78
2018-02-24T05:53:44.964Z,84.88
2018-02-24T05:54:55.070Z,84.78
2018-02-24T05:56:04.865Z,84.97
2018-02-24T05:57:14.910Z,85.06
2018-02-24T05:58:24.711Z,85.16
2018-02-24T05:59:34.797Z,84.88
2018-02-24T06:00:44.567Z,84.59
2018-02-24T06:01:54.372Z,84.5
2018-02-24T06:03:04.416Z,84.59
2018-02-24T06:04:14.450Z,84.88
2018-02-24T06:05:24.230Z,84.88
2018-02-24T06:06:34.282Z,84.88
2018-02-24T06:07:44.324Z,84.78
2018-02-24T06:08:54.109Z,84.69
2018-02-24T06:10:03.626Z,85.06
2018-02-24T06:11:13.420Z,84.41
2018-02-24T06:12:23.489Z,84.64
2018-02-24T06:13:33.270Z,84.26
2018-02-24T06:14:43.313Z,84.35
2018-02-24T06:15:53.169Z,84.54
2018-02-24T06:17:03.211Z,84.54
2018-02-24T06:18:13.273Z,84.35
2018-02-24T06:19:23.062Z,84.26
2018-02-24T06:20:33.156Z,84.35
2018-02-24T06:21:43.201Z,84.26
2018-02-24T06:22:53.005Z,84.64
2018-02-24T06:24:02.518Z,84.45
2018-02-24T06:25:12.334Z,84.54
2018-02-24T06:26:21.893Z,84.54
2018-02-24T06:27:32.333Z,84.35
2018-02-24T06:28:42.409Z,84.82
2018-02-24T06:29:51.918Z,84.54
2018-02-24T06:31:01.710Z,84.16
2018-02-24T06:32:11.228Z,84.26
2018-02-24T06:33:21.305Z,84.64
2018-02-24T06:34:31.344Z,84.64
2018-02-24T06:35:41.142Z,84.64
2018-02-24T06:36:51.191Z,84.26
2018-02-24T06:38:01.239Z,84.16
2018-02-24T06:39:10.504Z,84.35
2018-02-24T06:40:20.305Z,84.35
2018-02-24T06:41:29.836Z,84.35
2018-02-24T06:42:39.662Z,84.26
2018-02-24T06:43:49.188Z,84.07
2018-02-24T06:44:58.978Z,84.07
2018-02-24T06:46:08.761Z,84.26
2018-02-24T06:47:18.282Z,84.07
2018-02-24T06:48:28.334Z,84.26
2018-02-24T06:49:37.859Z,84.07
2018-02-24T06:50:47.646Z,84.07
2018-02-24T06:51:57.429Z,84.07
2018-02-24T06:53:07.525Z,84.16
2018-02-24T06:54:16.793Z,84.3
2018-02-24T06:55:26.594Z,84.26
2018-02-24T06:56:36.378Z,84.16
2018-02-24T06:57:46.166Z,84.2
2018-02-24T06:58:55.969Z,83.92
2018-02-24T07:00:06.016Z,84.11
2018-02-24T07:01:16.067Z,83.92
2018-02-24T07:02:25.876Z,83.73
2018-02-24T07:03:35.145Z,83.64
2018-02-24T07:04:44.673Z,83.54
2018-02-24T07:05:54.748Z,83.73
2018-02-24T07:07:04.803Z,83.64
2018-02-24T07:08:14.870Z,83.73
2018-02-24T07:09:24.660Z,83.83
2018-02-24T07:10:34.450Z,83.54
2018-02-24T07:11:43.979Z,83.73
2018-02-24T07:12:53.795Z,83.64
2018-02-24T07:14:03.661Z,83.83
2018-02-24T07:15:13.716Z,83.73
2018-02-24T07:16:23.511Z,83.83
2018-02-24T07:17:33.041Z,83.83
2018-02-24T07:18:43.125Z,83.73
2018-02-24T07:19:52.901Z,83.73
2018-02-24T07:21:02.461Z,83.73
2018-02-24T07:22:12.516Z,83.83
2018-02-24T07:23:22.312Z,84.01
2018-02-24T07:24:32.371Z,83.73
2018-02-24T07:25:42.174Z,84.01
2018-02-24T07:26:52.223Z,84.01
2018-02-24T07:28:02.031Z,83.54
2018-02-24T07:29:11.836Z,83.73
2018-02-24T07:30:21.634Z,83.83
2018-02-24T07:31:31.713Z,84.06
2018-02-24T07:32:41.501Z,83.59
2018-02-24T07:33:51.302Z,83.78
2018-02-24T07:35:01.090Z,84.06
2018-02-24T07:36:11.213Z,83.78
2018-02-24T07:37:21.008Z,83.49
2018-02-24T07:38:31.079Z,84.06
2018-02-24T07:39:40.876Z,84.06
2018-02-24T07:40:50.652Z,83.78
2018-02-24T07:42:00.731Z,83.78
2018-02-24T07:43:09.997Z,84.06
2018-02-24T07:44:20.047Z,83.87
2018-02-24T07:45:30.220Z,84.06
2018-02-24T07:46:40.276Z,83.87
2018-02-24T07:47:50.074Z,83.87
2018-02-24T07:49:00.127Z,83.49
2018-02-24T07:50:09.909Z,83.59
2018-02-24T07:51:19.998Z,83.87
2018-02-24T07:52:29.783Z,83.87
2018-02-24T07:53:39.841Z,84.06
2018-02-24T07:54:49.899Z,83.4
2018-02-24T07:56:01.120Z,83.78
2018-02-24T07:57:10.674Z,83.87
2018-02-24T07:58:20.460Z,83.87
2018-02-24T07:59:30.612Z,83.87
2018-02-24T08:00:40.422Z,83.78
2018-02-24T08:01:50.486Z,83.72
2018-02-24T08:03:00.017Z,83.34
2018-02-24T08:04:09.548Z,83.53
2018-02-24T08:05:19.609Z,83.82
2018-02-24T08:06:30.952Z,83.34
2018-02-24T08:07:40.743Z,83.25
2018-02-24T08:08:50.836Z,83.06
2018-02-24T08:10:00.623Z,83.15
2018-02-24T08:11:10.703Z,83.15
2018-02-24T08:12:20.745Z,83.72
2018-02-24T08:13:30.529Z,83.34
2018-02-24T08:14:40.108Z,83.44
2018-02-24T08:15:49.886Z,83.25
2018-02-24T08:16:59.508Z,83.15
2018-02-24T08:18:10.293Z,83.34
2018-02-24T08:19:20.381Z,83.82
2018-02-24T08:20:30.463Z,83.63
2018-02-24T08:21:40.693Z,83.44
2018-02-24T08:22:50.494Z,83.44
2018-02-24T08:24:00.302Z,83.72
2018-02-24T08:25:09.815Z,83.39
2018-02-24T08:26:19.598Z,83.29
2018-02-24T08:27:29.410Z,83.67
2018-02-24T08:28:39.205Z,83.29
2018-02-24T08:29:49.257Z,83.39
2018-02-24T08:30:59.048Z,83.2
2018-02-24T08:32:08.310Z,83.48
2018-02-24T08:33:18.092Z,83.2
2018-02-24T08:34:27.888Z,83.2
2018-02-24T08:35:37.683Z,83.39
2018-02-24T08:36:47.481Z,83.29
2018-02-24T08:37:57.276Z,83.2
2018-02-24T08:39:06.834Z,83.48
2018-02-24T08:40:16.881Z,83.67
2018-02-24T08:41:26.953Z,83.67
2018-02-24T08:42:36.817Z,83.48
2018-02-24T08:43:46.364Z,83.58
2018-02-24T08:44:56.177Z,83.76
2018-02-24T08:46:05.988Z,83.58
2018-02-24T08:47:15.818Z,83.39
2018-02-24T08:48:25.628Z,83.43
2018-02-24T08:49:35.798Z,83.29
2018-02-24T08:50:45.377Z,83.33
2018-02-24T08:51:55.484Z,83.52
2018-02-24T08:53:05.554Z,83.24
2018-02-24T08:54:15.358Z,83.43
2018-02-24T08:55:25.219Z,83.71
2018-02-24T08:56:35.322Z,83.52
2018-02-24T08:57:45.151Z,83.24
2018-02-24T08:58:55.234Z,83.71
2018-02-24T09:00:05.051Z,83.43
2018-02-24T09:01:15.208Z,83.62
2018-02-24T09:02:25.163Z,83.43
2018-02-24T09:03:35.248Z,83.52
2018-02-24T09:04:45.344Z,83.43
2018-02-24T09:05:54.984Z,83.14
2018-02-24T09:07:05.085Z,83.24
2018-02-24T09:08:15.001Z,83.24
2018-02-24T09:09:24.828Z,83.52
2018-02-24T09:10:34.897Z,83.52
2018-02-24T09:11:44.984Z,83.52
2018-02-24T09:12:55.104Z,83.9
2018-02-24T09:14:05.866Z,83.56
2018-02-24T09:15:15.932Z,83.56
2018-02-24T09:16:25.728Z,83.75
2018-02-24T09:17:35.796Z,83.56
2018-02-24T09:18:45.603Z,83.47
2018-02-24T09:19:55.668Z,83.37
2018-02-24T09:21:05.466Z,83.85
2018-02-24T09:22:15.262Z,83.66
2018-02-24T09:23:25.088Z,83.94
2018-02-24T09:24:34.905Z,83.75
2018-02-24T09:25:44.703Z,83.85
2018-02-24T09:26:54.514Z,83.47
2018-02-24T09:28:04.594Z,83.94
2018-02-24T09:29:14.661Z,83.75
2018-02-24T09:30:24.727Z,83.85
2018-02-24T09:31:34.535Z,83.47
2018-02-24T09:32:44.061Z,83.85
2018-02-24T09:33:54.141Z,83.37
2018-02-24T09:35:03.942Z,83.75
2018-02-24T09:36:14.008Z,83.66
2018-02-24T09:37:23.552Z,83.94
2018-02-24T09:38:33.097Z,83.47
2018-02-24T09:39:42.717Z,83.56
2018-02-24T09:40:52.541Z,83.75
2018-02-24T09:42:02.081Z,83.56
2018-02-24T09:43:11.623Z,83.89
2018-02-24T09:44:21.715Z,83.56
2018-02-24T09:45:31.316Z,83.61
2018-02-24T09:46:41.128Z,83.7
2018-02-24T09:47:50.928Z,83.51
2018-02-24T09:49:00.735Z,83.56
2018-02-24T09:50:10.796Z,83.42
2018-02-24T09:51:20.876Z,83.51
2018-02-24T09:52:32.416Z,83.42
2018-02-24T09:53:42.473Z,83.51
2018-02-24T09:54:52.560Z,83.32
2018-02-24T09:56:02.644Z,83.51
2018-02-24T09:57:12.695Z,83.51
2018-02-24T09:58:22.526Z,83.61
2018-02-24T09:59:32.599Z,83.51
2018-02-24T10:00:42.699Z,83.23
2018-02-24T10:01:52.806Z,83.42
2018-02-24T10:03:02.901Z,83.61
2018-02-24T10:04:12.994Z,83.23
2018-02-24T10:05:23.083Z,83.32
2018-02-24T10:06:33.169Z,83.51
2018-02-24T10:07:43.021Z,83.89
2018-02-24T10:08:53.183Z,83.23
2018-02-24T10:10:03.252Z,83.51
2018-02-24T10:11:12.568Z,83.51
2018-02-24T10:12:22.528Z,83.51
2018-02-24T10:13:32.636Z,83.46
2018-02-24T10:14:42.787Z,83.55
2018-02-24T10:15:52.628Z,83.17
2018-02-24T10:17:02.723Z,83.17
2018-02-24T10:18:12.832Z,83.27
2018-02-24T10:19:22.388Z,83.55
2018-02-24T10:20:31.967Z,83.65
2018-02-24T10:21:42.503Z,83.65
2018-02-24T10:22:51.923Z,83.36
2018-02-24T10:24:01.797Z,83.94
2018-02-24T10:25:11.628Z,83.17
2018-02-24T10:26:21.733Z,83.27
2018-02-24T10:27:31.818Z,83.55
2018-02-24T10:28:41.962Z,83.55
2018-02-24T10:29:52.025Z,84.03
2018-02-24T10:31:01.844Z,83.65
2018-02-24T10:32:11.400Z,83.84
2018-02-24T10:33:21.486Z,83.55
2018-02-24T10:34:31.576Z,83.55
2018-02-24T10:35:41.402Z,83.46
2018-02-24T10:36:51.254Z,83.55
2018-02-24T10:38:01.080Z,83.74
2018-02-24T10:39:10.635Z,83.94
2018-02-24T10:40:20.481Z,84.03
2018-02-24T10:41:30.539Z,83.94
2018-02-24T10:42:40.605Z,83.74
2018-02-24T10:43:50.169Z,83.17
2018-02-24T10:44:59.717Z,83.22
2018-02-24T10:46:08.715Z,83.22
2018-02-24T10:47:18.811Z,83.97
2018-02-24T10:48:28.608Z,83.31
2018-02-24T10:49:38.842Z,83.31
2018-02-24T10:50:48.407Z,83.69
2018-02-24T10:51:58.216Z,83.31
2018-02-24T10:53:07.759Z,83.97
2018-02-24T10:54:17.835Z,83.31
2018-02-24T10:55:27.644Z,83.4
2018-02-24T10:56:37.741Z,83.88
2018-02-24T10:57:47.312Z,83.97
2018-02-24T10:58:57.397Z,83.88
2018-02-24T11:00:07.505Z,83.88
2018-02-24T11:01:17.880Z,83.88
2018-02-24T11:02:27.968Z,83.59
2018-02-24T11:03:38.065Z,83.59
2018-02-24T11:04:48.151Z,83.88
2018-02-24T11:05:59.795Z,83.59
2018-02-24T11:07:09.760Z,83.5
2018-02-24T11:08:19.579Z,83.78
2018-02-24T11:09:29.643Z,83.69
2018-02-24T11:10:39.182Z,83.88
2018-02-24T11:11:48.999Z,83.69
2018-02-24T11:12:59.069Z,83.69
2018-02-24T11:14:09.133Z,83.97
2018-02-24T11:15:20.202Z,83.5
2018-02-24T11:16:30.263Z,83.69
2018-02-24T11:17:39.797Z,83.59
2018-02-24T11:18:49.952Z,83.31
2018-02-24T11:19:59.499Z,83.31
2018-02-24T11:21:09.304Z,83.31
2018-02-24T11:22:18.834Z,83.22
2018-02-24T11:23:28.490Z,83.59
2018-02-24T11:24:38.054Z,83.59
2018-02-24T11:25:47.897Z,83.4
2018-02-24T11:26:57.426Z,83.31
2018-02-24T11:28:07.222Z,83.22
2018-02-24T11:29:17.014Z,83.12
2018-02-24T11:30:26.553Z,83.22
2018-02-24T11:31:36.349Z,83.22
2018-02-24T11:32:45.886Z,83.31
2018-02-24T11:33:55.680Z,83.97
2018-02-24T11:35:05.789Z,83.31
2018-02-24T11:36:15.646Z,83.5
2018-02-24T11:37:25.431Z,83.5
2018-02-24T11:38:35.256Z,83.12
2018-02-24T11:39:45.074Z,83.31
2018-02-24T11:40:55.154Z,83.31
2018-02-24T11:42:04.947Z,83.22
2018-02-24T11:43:15.005Z,83.31
2018-02-24T11:44:24.806Z,84.07
2018-02-24T11:45:34.339Z,83.22
2018-02-24T11:46:44.461Z,83.4
2018-02-24T11:47:54.274Z,83.36
2018-02-24T11:49:04.331Z,83.26
2018-02-24T11:50:14.146Z,83.64
2018-02-24T11:51:24.009Z,83.64
2018-02-24T11:52:34.069Z,83.26
2018-02-24T11:53:44.169Z,83.83
2018-02-24T11:54:54.237Z,83.16
2018-02-24T11:56:03.786Z,82.88
2018-02-24T11:57:13.319Z,83.26
2018-02-24T11:58:23.118Z,84.01
2018-02-24T11:59:32.938Z,83.64
2018-02-24T12:00:42.206Z,83.45
2018-02-24T12:01:52.004Z,84.01
2018-02-24T12:03:02.049Z,83.73
2018-02-24T12:04:11.845Z,83.54
2018-02-24T12:05:21.371Z,83.64
2018-02-24T12:06:31.161Z,83.92
2018-02-24T12:07:41.028Z,83.83
2018-02-24T12:08:50.830Z,83.26
2018-02-24T12:10:00.887Z,83.07
2018-02-24T12:11:10.951Z,82.88
2018-02-24T12:12:20.505Z,83.36
2018-02-24T12:13:30.031Z,83.36
2018-02-24T12:14:40.972Z,83.36
2018-02-24T12:15:51.082Z,83.36
2018-02-24T12:17:00.880Z,83.3
2018-02-24T12:18:10.667Z,82.92
2018-02-24T12:19:20.546Z,83.11
2018-02-24T12:20:30.342Z,83.01
2018-02-24T12:21:40.408Z,83.11
2018-02-24T12:22:50.210Z,82.92
2018-02-24T12:23:59.757Z,82.92
2018-02-24T12:25:09.808Z,82.29
2018-02-24T12:26:19.913Z,82.1
2018-02-24T12:27:30.052Z,81.92
2018-02-24T12:28:39.873Z,82.39
2018-02-24T12:29:49.938Z,82.05
2018-02-24T12:30:59.203Z,82.29
2018-02-24T12:32:09.018Z,82.15
2018-02-24T12:33:18.608Z,81.81
2018-02-24T12:34:27.901Z,81.71
2018-02-24T12:35:37.699Z,81.62
2018-02-24T12:36:47.759Z,82.28
2018-02-24T12:37:57.573Z,82
2018-02-24T12:39:07.101Z,82.71
2018-02-24T12:40:17.178Z,83.29
2018-02-24T12:41:27.238Z,83.1
2018-02-24T12:42:37.030Z,82.48
2018-02-24T12:43:47.087Z,83
2018-02-24T12:44:56.601Z,83.58
2018-02-24T12:46:06.667Z,84.2
2018-02-24T12:47:16.729Z,84.58
2018-02-24T12:48:26.810Z,85.11
2018-02-24T12:49:36.891Z,84.72
2018-02-24T12:50:47.239Z,84.91
2018-02-24T12:51:57.064Z,85.3
2018-02-24T12:53:07.125Z,84.77
2018-02-24T12:54:16.913Z,84.48
2018-02-24T12:55:26.978Z,84.58
2018-02-24T12:56:36.832Z,84.06
2018-02-24T12:57:46.632Z,84.25
2018-02-24T12:58:56.452Z,84.44
2018-02-24T13:00:06.309Z,84.25
2018-02-24T13:01:16.382Z,84.63
2018-02-24T13:02:26.267Z,84.72
2018-02-24T13:03:36.089Z,84.82
2018-02-24T13:04:46.183Z,84.68
2018-02-24T13:05:55.475Z,84.68
2018-02-24T13:07:05.290Z,84.97
2018-02-24T13:08:15.100Z,84.87
2018-02-24T13:09:25.171Z,83.97
2018-02-24T13:10:35.051Z,84.25
2018-02-24T13:11:44.863Z,83.59
2018-02-24T13:12:54.970Z,83.59
2018-02-24T13:14:05.095Z,83.59
2018-02-24T13:15:14.934Z,83.68
2018-02-24T13:16:25.013Z,83.49
2018-02-24T13:17:35.110Z,83.68
2018-02-24T13:18:45.183Z,84.16
2018-02-24T13:19:55.245Z,84.16
2018-02-24T13:21:05.410Z,84.06
2018-02-24T13:22:15.024Z,84.06
2018-02-24T13:23:24.832Z,84.16
2018-02-24T13:24:52.005Z,83.59
2018-02-24T13:26:02.078Z,83.62
2018-02-24T13:27:11.638Z,83.62
2018-02-24T13:28:21.179Z,83.72
2018-02-24T13:29:31.272Z,83.91
2018-02-24T13:30:41.398Z,83.91
2018-02-24T13:31:51.219Z,84.06
2018-02-24T13:33:01.296Z,84.44
2018-02-24T13:34:11.392Z,84.91
2018-02-24T13:35:20.949Z,84.53
2018-02-24T13:36:30.545Z,84.78
2018-02-24T13:37:40.622Z,84.68
2018-02-24T13:39:04.248Z,85.44
2018-02-24T13:40:14.356Z,85.25
2018-02-24T13:41:24.486Z,85.25
2018-02-24T13:42:34.682Z,84.78
